Aérodrome :
LOGIN :

S'inscrire | Disclaimer

   EN    FR    IT 

 










Légende :    VFR   VFR Marginal   IFR   IFR Intensif   IFR Très Intensif
Visi : 
Plafond : 
>= 8 km
>= 3000ft
5 à 8 km
1000 à 3000 ft
1500m à 5 km
500 à 1000 ft
800 à 1500m
200 à 500 ft
< 800m
< 200 ft
Symboles :   Orages  Brouillard  Fortes neiges  Fortes précipitations  Vent > 20 kt
SIGMETs :   Divers  Orages  Givrage  Turbulence  Onde Orograph.  Cendres Volcan.






- Altitude de l'aérodrome : 249 ft


EGOS - RAF Shawbury

DERNIER METAR :
  • 181150Z 19015KT 9999 -SHRA FEW020 SCT050 BKN200 11/08 Q0995 TEMPO 6000 SHRA SCT020 RMK BLU TEMPO WHT

METARs EXPIRÉS :
  • 181120Z 19015KT 9999 FEW017 11/08 Q0995 TEMPO 6000 SHRA SCT018 RMK BLU TEMPO WHT
  • 181050Z 19015KT 9999 FEW014 FEW018CB SCT120 10/07 Q0995 TEMPO -SHRA SCT018 RMK BLU TEMPO WHT
  • 181020Z 18012KT 9999 FEW014 FEW018CB SCT050 BKN120 10/07 Q0995 TEMPO 19012G22KT -SHRA SCT018 RMK BLU TEMPO WHT
  • 180950Z 19012KT 9999 FEW012 FEW018CB SCT060 BKN110 10/08 Q0995 NOSIG RMK BLU BLU
  • 180920Z 17007KT 9999 FEW012 BKN060 09/07 Q0995 NOSIG RMK BLU BLU

TAF TAF EGOS
Valide du 18 à 12h jusqu'au 18 à 17h UTC


181029Z 1812/1817 20013G23KT 9999 FEW025 SCT045
TEMPO 1812/1817 6000 SHRA BKN020TCU
PROB30
TEMPO 1814/1817 4000 +SHRA BKN018CB



MET'MAP, la Météo Aéronautique d'un coup d'oeil ! - Copyright ORBIFLY Décembre 2007 - Disclaimer

ORBIFLY MET'MAP TEAM :

Programmation & Développement : Alexandra Zaïnal
Conception & Développement : Baudouin d'Aumeries
Co-Programmation & Développement : Marc-Olivier Méhu
Soutien technique & logistique : Manuel Goepfert

Contact : metmap@orbifly.com




SOURCES & CREDITS :

   NOAA